sensor_id;sensor_type;location;lat;lon;timestamp;temperature;humidity
21261;DHT22;10788;47.930;9.766;2023-04-20T00:01:04;4.70;99.90
21261;DHT22;10788;47.930;9.766;2023-04-20T00:03:30;4.70;99.90
21261;DHT22;10788;47.930;9.766;2023-04-20T00:05:58;4.70;99.90
21261;DHT22;10788;47.930;9.766;2023-04-20T00:08:28;4.70;99.90
21261;DHT22;10788;47.930;9.766;2023-04-20T00:10:54;4.70;99.90
21261;DHT22;10788;47.930;9.766;2023-04-20T00:13:20;4.70;99.90
21261;DHT22;10788;47.930;9.766;2023-04-20T00:15:46;4.70;99.90
21261;DHT22;10788;47.930;9.766;2023-04-20T00:18:11;4.70;99.90
21261;DHT22;10788;47.930;9.766;2023-04-20T00:20:37;4.70;99.90
21261;DHT22;10788;47.930;9.766;2023-04-20T00:23:03;4.70;99.90
21261;DHT22;10788;47.930;9.766;2023-04-20T00:25:28;4.70;99.90
21261;DHT22;10788;47.930;9.766;2023-04-20T00:27:55;4.70;99.90
21261;DHT22;10788;47.930;9.766;2023-04-20T00:30:21;4.70;99.90
21261;DHT22;10788;47.930;9.766;2023-04-20T00:32:47;4.70;99.90
21261;DHT22;10788;47.930;9.766;2023-04-20T00:35:12;4.70;99.90
21261;DHT22;10788;47.930;9.766;2023-04-20T00:37:38;4.70;99.90
21261;DHT22;10788;47.930;9.766;2023-04-20T00:40:05;4.60;99.90
21261;DHT22;10788;47.930;9.766;2023-04-20T00:42:31;4.60;99.90
21261;DHT22;10788;47.930;9.766;2023-04-20T00:44:56;4.60;99.90
21261;DHT22;10788;47.930;9.766;2023-04-20T00:47:22;4.60;99.90
21261;DHT22;10788;47.930;9.766;2023-04-20T00:49:47;4.60;99.90
21261;DHT22;10788;47.930;9.766;2023-04-20T00:52:13;4.60;99.90
21261;DHT22;10788;47.930;9.766;2023-04-20T00:54:39;4.60;99.90
21261;DHT22;10788;47.930;9.766;2023-04-20T00:57:05;4.60;99.90
21261;DHT22;10788;47.930;9.766;2023-04-20T00:59:31;4.60;99.90
21261;DHT22;10788;47.930;9.766;2023-04-20T01:01:56;4.60;99.90
21261;DHT22;10788;47.930;9.766;2023-04-20T01:04:22;4.60;99.90
21261;DHT22;10788;47.930;9.766;2023-04-20T01:06:48;4.60;99.90
21261;DHT22;10788;47.930;9.766;2023-04-20T01:09:14;4.60;99.90
21261;DHT22;10788;47.930;9.766;2023-04-20T01:11:40;4.50;99.90
21261;DHT22;10788;47.930;9.766;2023-04-20T01:14:06;4.60;99.90
21261;DHT22;10788;47.930;9.766;2023-04-20T01:16:31;4.60;99.90
21261;DHT22;10788;47.930;9.766;2023-04-20T01:18:59;4.60;99.90
21261;DHT22;10788;47.930;9.766;2023-04-20T01:21:25;4.50;99.90
21261;DHT22;10788;47.930;9.766;2023-04-20T01:23:51;4.50;99.90
21261;DHT22;10788;47.930;9.766;2023-04-20T01:26:17;4.50;99.90
21261;DHT22;10788;47.930;9.766;2023-04-20T01:28:44;4.50;99.90
21261;DHT22;10788;47.930;9.766;2023-04-20T01:31:11;4.50;99.90
21261;DHT22;10788;47.930;9.766;2023-04-20T01:33:37;4.50;99.90
21261;DHT22;10788;47.930;9.766;2023-04-20T01:36:04;4.50;99.90
21261;DHT22;10788;47.930;9.766;2023-04-20T01:38:31;4.50;99.90
21261;DHT22;10788;47.930;9.766;2023-04-20T01:41:00;4.50;99.90
21261;DHT22;10788;47.930;9.766;2023-04-20T01:43:26;4.50;99.90
21261;DHT22;10788;47.930;9.766;2023-04-20T01:45:51;4.50;99.90
21261;DHT22;10788;47.930;9.766;2023-04-20T01:48:17;4.40;99.90
21261;DHT22;10788;47.930;9.766;2023-04-20T01:50:43;4.40;99.90
21261;DHT22;10788;47.930;9.766;2023-04-20T01:53:08;4.40;99.90
21261;DHT22;10788;47.930;9.766;2023-04-20T01:55:34;4.40;99.90
21261;DHT22;10788;47.930;9.766;2023-04-20T01:58:00;4.20;99.90
21261;DHT22;10788;47.930;9.766;2023-04-20T02:00:25;4.10;99.90
21261;DHT22;10788;47.930;9.766;2023-04-20T02:02:51;4.00;99.90
21261;DHT22;10788;47.930;9.766;2023-04-20T02:05:16;4.00;99.90
21261;DHT22;10788;47.930;9.766;2023-04-20T02:07:42;4.00;99.90
21261;DHT22;10788;47.930;9.766;2023-04-20T02:10:08;4.10;99.90
21261;DHT22;10788;47.930;9.766;2023-04-20T02:12:34;4.20;99.90
21261;DHT22;10788;47.930;9.766;2023-04-20T02:15:00;4.20;99.90
21261;DHT22;10788;47.930;9.766;2023-04-20T02:17:26;4.20;99.90
21261;DHT22;10788;47.930;9.766;2023-04-20T02:19:52;4.20;99.90
21261;DHT22;10788;47.930;9.766;2023-04-20T02:22:17;4.20;99.90
21261;DHT22;10788;47.930;9.766;2023-04-20T02:24:43;4.20;99.90
21261;DHT22;10788;47.930;9.766;2023-04-20T02:27:09;4.20;99.90
21261;DHT22;10788;47.930;9.766;2023-04-20T02:29:35;4.30;99.90
21261;DHT22;10788;47.930;9.766;2023-04-20T02:32:01;4.30;99.90
21261;DHT22;10788;47.930;9.766;2023-04-20T02:34:26;4.20;99.90
21261;DHT22;10788;47.930;9.766;2023-04-20T02:36:52;4.30;99.90
21261;DHT22;10788;47.930;9.766;2023-04-20T02:39:17;4.20;99.90
21261;DHT22;10788;47.930;9.766;2023-04-20T02:41:43;4.20;99.90
21261;DHT22;10788;47.930;9.766;2023-04-20T02:44:09;4.20;99.90
21261;DHT22;10788;47.930;9.766;2023-04-20T02:46:34;4.10;99.90
21261;DHT22;10788;47.930;9.766;2023-04-20T02:49:00;4.10;99.90
21261;DHT22;10788;47.930;9.766;2023-04-20T02:51:26;4.10;99.90
21261;DHT22;10788;47.930;9.766;2023-04-20T02:53:52;4.10;99.90
21261;DHT22;10788;47.930;9.766;2023-04-20T02:56:18;4.10;99.90
21261;DHT22;10788;47.930;9.766;2023-04-20T02:58:43;4.10;99.90
21261;DHT22;10788;47.930;9.766;2023-04-20T03:01:09;4.10;99.90
21261;DHT22;10788;47.930;9.766;2023-04-20T03:03:35;4.10;99.90
21261;DHT22;10788;47.930;9.766;2023-04-20T03:06:00;4.20;99.90
21261;DHT22;10788;47.930;9.766;2023-04-20T03:08:26;4.10;99.90
21261;DHT22;10788;47.930;9.766;2023-04-20T03:10:52;4.10;99.90
21261;DHT22;10788;47.930;9.766;2023-04-20T03:13:17;4.00;99.90
21261;DHT22;10788;47.930;9.766;2023-04-20T03:15:43;4.10;99.90
21261;DHT22;10788;47.930;9.766;2023-04-20T03:18:09;4.10;99.90
21261;DHT22;10788;47.930;9.766;2023-04-20T03:20:34;4.10;99.90
21261;DHT22;10788;47.930;9.766;2023-04-20T03:23:00;4.10;99.90
21261;DHT22;10788;47.930;9.766;2023-04-20T03:25:26;4.10;99.90
21261;DHT22;10788;47.930;9.766;2023-04-20T03:27:52;4.10;99.90
21261;DHT22;10788;47.930;9.766;2023-04-20T03:30:17;4.00;99.90
21261;DHT22;10788;47.930;9.766;2023-04-20T03:32:43;4.10;99.90
21261;DHT22;10788;47.930;9.766;2023-04-20T03:35:09;4.10;99.90
21261;DHT22;10788;47.930;9.766;2023-04-20T03:37:36;4.10;99.90
21261;DHT22;10788;47.930;9.766;2023-04-20T03:40:02;4.10;99.90
21261;DHT22;10788;47.930;9.766;2023-04-20T03:42:28;4.10;99.90
21261;DHT22;10788;47.930;9.766;2023-04-20T03:44:54;4.10;99.90
21261;DHT22;10788;47.930;9.766;2023-04-20T03:47:20;4.10;99.90
21261;DHT22;10788;47.930;9.766;2023-04-20T03:49:46;4.00;99.90
21261;DHT22;10788;47.930;9.766;2023-04-20T03:52:11;4.00;99.90
21261;DHT22;10788;47.930;9.766;2023-04-20T03:54:37;4.00;99.90
21261;DHT22;10788;47.930;9.766;2023-04-20T03:57:02;4.10;99.90
21261;DHT22;10788;47.930;9.766;2023-04-20T03:59:28;4.00;99.90
21261;DHT22;10788;47.930;9.766;2023-04-20T04:01:54;4.00;99.90
21261;DHT22;10788;47.930;9.766;2023-04-20T04:04:19;4.00;99.90
21261;DHT22;10788;47.930;9.766;2023-04-20T04:06:45;4.00;99.90
21261;DHT22;10788;47.930;9.766;2023-04-20T04:09:10;4.00;99.90
21261;DHT22;10788;47.930;9.766;2023-04-20T04:11:36;4.00;99.90
21261;DHT22;10788;47.930;9.766;2023-04-20T04:14:01;4.00;99.90
21261;DHT22;10788;47.930;9.766;2023-04-20T04:16:30;3.90;99.90
21261;DHT22;10788;47.930;9.766;2023-04-20T04:18:55;3.80;99.90
21261;DHT22;10788;47.930;9.766;2023-04-20T04:21:21;3.90;99.90
21261;DHT22;10788;47.930;9.766;2023-04-20T04:23:48;3.90;99.90
21261;DHT22;10788;47.930;9.766;2023-04-20T04:26:13;3.90;99.90
21261;DHT22;10788;47.930;9.766;2023-04-20T04:28:39;3.80;99.90
21261;DHT22;10788;47.930;9.766;2023-04-20T04:31:05;3.80;99.90
21261;DHT22;10788;47.930;9.766;2023-04-20T04:33:32;3.80;99.90
21261;DHT22;10788;47.930;9.766;2023-04-20T04:36:00;3.80;99.90
21261;DHT22;10788;47.930;9.766;2023-04-20T04:38:26;3.90;99.90
21261;DHT22;10788;47.930;9.766;2023-04-20T04:40:52;4.00;99.90
21261;DHT22;10788;47.930;9.766;2023-04-20T04:43:19;4.00;99.90
21261;DHT22;10788;47.930;9.766;2023-04-20T04:45:45;3.80;99.90
21261;DHT22;10788;47.930;9.766;2023-04-20T04:48:11;3.90;99.90
21261;DHT22;10788;47.930;9.766;2023-04-20T04:50:37;3.90;99.90
21261;DHT22;10788;47.930;9.766;2023-04-20T04:53:03;3.90;99.90
21261;DHT22;10788;47.930;9.766;2023-04-20T04:55:29;3.90;99.90
21261;DHT22;10788;47.930;9.766;2023-04-20T04:57:54;4.00;99.90
21261;DHT22;10788;47.930;9.766;2023-04-20T05:00:20;4.00;99.90
21261;DHT22;10788;47.930;9.766;2023-04-20T05:02:47;4.00;99.90
21261;DHT22;10788;47.930;9.766;2023-04-20T05:05:12;4.00;99.90
21261;DHT22;10788;47.930;9.766;2023-04-20T05:07:38;4.00;99.90
21261;DHT22;10788;47.930;9.766;2023-04-20T05:10:05;4.00;99.90
21261;DHT22;10788;47.930;9.766;2023-04-20T05:12:31;4.00;99.90
21261;DHT22;10788;47.930;9.766;2023-04-20T05:14:57;4.00;99.90
21261;DHT22;10788;47.930;9.766;2023-04-20T05:17:22;4.10;99.90
21261;DHT22;10788;47.930;9.766;2023-04-20T05:19:48;4.00;99.90
21261;DHT22;10788;47.930;9.766;2023-04-20T05:22:14;4.00;99.90
21261;DHT22;10788;47.930;9.766;2023-04-20T05:24:39;4.00;99.90
21261;DHT22;10788;47.930;9.766;2023-04-20T05:27:07;4.00;99.90
21261;DHT22;10788;47.930;9.766;2023-04-20T05:29:33;4.00;99.90
21261;DHT22;10788;47.930;9.766;2023-04-20T05:31:58;4.00;99.90
21261;DHT22;10788;47.930;9.766;2023-04-20T05:34:24;4.00;99.90
21261;DHT22;10788;47.930;9.766;2023-04-20T05:36:51;4.00;99.90
21261;DHT22;10788;47.930;9.766;2023-04-20T05:39:17;4.00;99.90
21261;DHT22;10788;47.930;9.766;2023-04-20T05:41:44;4.00;99.90
21261;DHT22;10788;47.930;9.766;2023-04-20T05:44:10;4.00;99.90
21261;DHT22;10788;47.930;9.766;2023-04-20T05:46:36;4.10;99.90
21261;DHT22;10788;47.930;9.766;2023-04-20T05:49:01;4.10;99.90
21261;DHT22;10788;47.930;9.766;2023-04-20T05:51:27;4.10;99.90
21261;DHT22;10788;47.930;9.766;2023-04-20T05:53:57;4.00;99.90
21261;DHT22;10788;47.930;9.766;2023-04-20T05:56:22;4.10;99.90
21261;DHT22;10788;47.930;9.766;2023-04-20T05:58:48;4.00;99.90
21261;DHT22;10788;47.930;9.766;2023-04-20T06:01:14;3.90;99.90
21261;DHT22;10788;47.930;9.766;2023-04-20T06:03:40;4.00;99.90
21261;DHT22;10788;47.930;9.766;2023-04-20T06:06:05;4.00;99.90
21261;DHT22;10788;47.930;9.766;2023-04-20T06:08:31;4.10;99.90
21261;DHT22;10788;47.930;9.766;2023-04-20T06:10:57;4.00;99.90
21261;DHT22;10788;47.930;9.766;2023-04-20T06:13:23;3.90;99.90
21261;DHT22;10788;47.930;9.766;2023-04-20T06:15:48;3.90;99.90
21261;DHT22;10788;47.930;9.766;2023-04-20T06:18:14;4.00;99.90
21261;DHT22;10788;47.930;9.766;2023-04-20T06:20:42;4.00;99.90
21261;DHT22;10788;47.930;9.766;2023-04-20T06:23:08;4.00;99.90
21261;DHT22;10788;47.930;9.766;2023-04-20T06:25:35;4.00;99.90
21261;DHT22;10788;47.930;9.766;2023-04-20T06:28:02;3.70;99.90
21261;DHT22;10788;47.930;9.766;2023-04-20T06:30:27;3.80;99.90
21261;DHT22;10788;47.930;9.766;2023-04-20T06:32:53;3.80;99.90
21261;DHT22;10788;47.930;9.766;2023-04-20T06:35:18;3.80;99.90
21261;DHT22;10788;47.930;9.766;2023-04-20T06:37:44;3.80;99.90
21261;DHT22;10788;47.930;9.766;2023-04-20T06:40:10;3.90;99.90
21261;DHT22;10788;47.930;9.766;2023-04-20T06:42:36;3.80;99.90
21261;DHT22;10788;47.930;9.766;2023-04-20T06:45:02;3.90;99.90
21261;DHT22;10788;47.930;9.766;2023-04-20T06:47:28;3.90;99.90
21261;DHT22;10788;47.930;9.766;2023-04-20T06:50:05;4.00;99.90
21261;DHT22;10788;47.930;9.766;2023-04-20T06:52:36;4.00;99.90
21261;DHT22;10788;47.930;9.766;2023-04-20T06:55:02;4.00;99.90
21261;DHT22;10788;47.930;9.766;2023-04-20T06:57:28;4.00;99.90
21261;DHT22;10788;47.930;9.766;2023-04-20T06:59:54;4.00;99.90
21261;DHT22;10788;47.930;9.766;2023-04-20T07:02:19;4.00;99.90
21261;DHT22;10788;47.930;9.766;2023-04-20T07:04:45;4.00;99.90
21261;DHT22;10788;47.930;9.766;2023-04-20T07:07:10;4.00;99.90
21261;DHT22;10788;47.930;9.766;2023-04-20T07:09:36;3.90;99.90
21261;DHT22;10788;47.930;9.766;2023-04-20T07:12:02;4.00;99.90
21261;DHT22;10788;47.930;9.766;2023-04-20T07:14:27;4.00;99.90
21261;DHT22;10788;47.930;9.766;2023-04-20T07:16:53;4.00;99.90
21261;DHT22;10788;47.930;9.766;2023-04-20T07:19:19;4.00;99.90
21261;DHT22;10788;47.930;9.766;2023-04-20T07:21:45;4.00;99.90
21261;DHT22;10788;47.930;9.766;2023-04-20T07:24:10;4.10;99.90
21261;DHT22;10788;47.930;9.766;2023-04-20T07:26:36;4.10;99.90
21261;DHT22;10788;47.930;9.766;2023-04-20T07:29:02;4.20;99.90
21261;DHT22;10788;47.930;9.766;2023-04-20T07:31:27;4.20;99.90
21261;DHT22;10788;47.930;9.766;2023-04-20T07:33:53;4.20;99.90
21261;DHT22;10788;47.930;9.766;2023-04-20T07:36:18;4.20;99.90
21261;DHT22;10788;47.930;9.766;2023-04-20T07:38:46;4.30;99.90
21261;DHT22;10788;47.930;9.766;2023-04-20T07:41:11;4.30;99.90
21261;DHT22;10788;47.930;9.766;2023-04-20T07:43:37;4.20;99.90
21261;DHT22;10788;47.930;9.766;2023-04-20T07:46:05;4.30;99.90
21261;DHT22;10788;47.930;9.766;2023-04-20T07:48:33;4.30;99.90
21261;DHT22;10788;47.930;9.766;2023-04-20T07:50:59;4.30;99.90
21261;DHT22;10788;47.930;9.766;2023-04-20T07:53:25;4.50;99.90
21261;DHT22;10788;47.930;9.766;2023-04-20T07:55:51;4.50;99.90
21261;DHT22;10788;47.930;9.766;2023-04-20T07:58:16;4.60;99.90
21261;DHT22;10788;47.930;9.766;2023-04-20T08:00:45;4.50;99.90
21261;DHT22;10788;47.930;9.766;2023-04-20T08:03:14;4.60;99.90
21261;DHT22;10788;47.930;9.766;2023-04-20T08:05:39;4.60;99.90
21261;DHT22;10788;47.930;9.766;2023-04-20T08:08:05;4.70;99.90
21261;DHT22;10788;47.930;9.766;2023-04-20T08:10:31;4.60;99.90
21261;DHT22;10788;47.930;9.766;2023-04-20T08:12:57;4.80;99.90
21261;DHT22;10788;47.930;9.766;2023-04-20T08:15:23;4.70;99.90
21261;DHT22;10788;47.930;9.766;2023-04-20T08:17:49;4.70;99.90
21261;DHT22;10788;47.930;9.766;2023-04-20T08:20:15;4.80;99.90
21261;DHT22;10788;47.930;9.766;2023-04-20T08:22:40;4.90;99.90
21261;DHT22;10788;47.930;9.766;2023-04-20T08:25:06;4.90;99.90
21261;DHT22;10788;47.930;9.766;2023-04-20T08:27:32;5.00;99.90
21261;DHT22;10788;47.930;9.766;2023-04-20T08:29:57;5.10;99.90
21261;DHT22;10788;47.930;9.766;2023-04-20T08:32:23;5.10;99.90
21261;DHT22;10788;47.930;9.766;2023-04-20T08:34:51;5.10;99.90
21261;DHT22;10788;47.930;9.766;2023-04-20T08:37:17;5.00;99.90
21261;DHT22;10788;47.930;9.766;2023-04-20T08:39:43;5.10;99.90
21261;DHT22;10788;47.930;9.766;2023-04-20T08:42:09;5.00;99.90
21261;DHT22;10788;47.930;9.766;2023-04-20T08:44:34;5.00;99.90
21261;DHT22;10788;47.930;9.766;2023-04-20T08:47:00;5.00;99.90
21261;DHT22;10788;47.930;9.766;2023-04-20T08:49:27;5.10;99.90
21261;DHT22;10788;47.930;9.766;2023-04-20T08:51:54;5.10;99.90
21261;DHT22;10788;47.930;9.766;2023-04-20T08:54:20;5.20;99.90
21261;DHT22;10788;47.930;9.766;2023-04-20T08:56:46;5.10;99.90
21261;DHT22;10788;47.930;9.766;2023-04-20T08:59:14;5.10;99.90
21261;DHT22;10788;47.930;9.766;2023-04-20T09:01:41;5.10;99.90
21261;DHT22;10788;47.930;9.766;2023-04-20T09:04:20;5.10;99.90
21261;DHT22;10788;47.930;9.766;2023-04-20T09:06:50;5.10;99.90
21261;DHT22;10788;47.930;9.766;2023-04-20T09:09:17;5.10;99.90
21261;DHT22;10788;47.930;9.766;2023-04-20T09:11:43;5.10;99.90
21261;DHT22;10788;47.930;9.766;2023-04-20T09:14:10;5.10;99.90
21261;DHT22;10788;47.930;9.766;2023-04-20T09:16:37;5.00;99.90
21261;DHT22;10788;47.930;9.766;2023-04-20T09:19:04;5.10;99.90
21261;DHT22;10788;47.930;9.766;2023-04-20T09:21:30;5.00;99.90
21261;DHT22;10788;47.930;9.766;2023-04-20T09:24:00;5.10;99.90
21261;DHT22;10788;47.930;9.766;2023-04-20T09:26:30;5.10;99.90
21261;DHT22;10788;47.930;9.766;2023-04-20T09:28:55;5.10;99.90
21261;DHT22;10788;47.930;9.766;2023-04-20T09:31:22;5.10;99.90
21261;DHT22;10788;47.930;9.766;2023-04-20T09:34:00;4.80;99.90
21261;DHT22;10788;47.930;9.766;2023-04-20T09:36:37;4.80;99.90
21261;DHT22;10788;47.930;9.766;2023-04-20T09:39:09;4.80;99.90
21261;DHT22;10788;47.930;9.766;2023-04-20T09:41:36;4.70;99.90
21261;DHT22;10788;47.930;9.766;2023-04-20T09:44:02;4.70;99.90
21261;DHT22;10788;47.930;9.766;2023-04-20T09:46:29;4.80;99.90
21261;DHT22;10788;47.930;9.766;2023-04-20T09:48:59;4.90;99.90
21261;DHT22;10788;47.930;9.766;2023-04-20T09:51:26;5.00;99.90
21261;DHT22;10788;47.930;9.766;2023-04-20T09:53:57;5.10;99.90
21261;DHT22;10788;47.930;9.766;2023-04-20T09:56:24;5.10;99.90
21261;DHT22;10788;47.930;9.766;2023-04-20T09:58:51;5.10;99.90
21261;DHT22;10788;47.930;9.766;2023-04-20T10:01:17;5.20;99.90
21261;DHT22;10788;47.930;9.766;2023-04-20T10:03:44;5.20;99.90
21261;DHT22;10788;47.930;9.766;2023-04-20T10:06:25;5.20;99.90
21261;DHT22;10788;47.930;9.766;2023-04-20T10:08:52;5.30;99.90
21261;DHT22;10788;47.930;9.766;2023-04-20T10:13:50;5.50;99.90
21261;DHT22;10788;47.930;9.766;2023-04-20T10:16:17;5.60;99.90
21261;DHT22;10788;47.930;9.766;2023-04-20T10:18:42;5.50;99.90
21261;DHT22;10788;47.930;9.766;2023-04-20T10:21:09;5.30;99.90
21261;DHT22;10788;47.930;9.766;2023-04-20T10:23:45;5.40;99.90
21261;DHT22;10788;47.930;9.766;2023-04-20T10:26:11;5.50;99.90
21261;DHT22;10788;47.930;9.766;2023-04-20T10:28:39;5.50;99.90
21261;DHT22;10788;47.930;9.766;2023-04-20T10:31:07;5.60;99.90
21261;DHT22;10788;47.930;9.766;2023-04-20T10:33:32;5.50;99.90
21261;DHT22;10788;47.930;9.766;2023-04-20T10:35:58;5.60;99.90
21261;DHT22;10788;47.930;9.766;2023-04-20T10:38:34;5.80;99.90
21261;DHT22;10788;47.930;9.766;2023-04-20T10:41:10;5.60;99.90
21261;DHT22;10788;47.930;9.766;2023-04-20T10:43:36;5.60;99.90
21261;DHT22;10788;47.930;9.766;2023-04-20T10:46:21;5.80;99.90
21261;DHT22;10788;47.930;9.766;2023-04-20T10:48:52;5.80;99.90
21261;DHT22;10788;47.930;9.766;2023-04-20T10:51:18;5.80;99.90
21261;DHT22;10788;47.930;9.766;2023-04-20T10:53:44;5.70;99.90
21261;DHT22;10788;47.930;9.766;2023-04-20T10:56:10;5.60;99.90
21261;DHT22;10788;47.930;9.766;2023-04-20T10:58:36;5.70;99.90
21261;DHT22;10788;47.930;9.766;2023-04-20T11:01:03;5.80;99.90
21261;DHT22;10788;47.930;9.766;2023-04-20T11:03:30;5.90;99.90
21261;DHT22;10788;47.930;9.766;2023-04-20T11:05:57;5.90;99.90
21261;DHT22;10788;47.930;9.766;2023-04-20T11:08:39;5.90;99.90
21261;DHT22;10788;47.930;9.766;2023-04-20T11:11:16;5.90;99.90
21261;DHT22;10788;47.930;9.766;2023-04-20T11:13:41;5.80;99.90
21261;DHT22;10788;47.930;9.766;2023-04-20T11:16:12;5.90;99.90
21261;DHT22;10788;47.930;9.766;2023-04-20T11:18:48;5.90;99.90
21261;DHT22;10788;47.930;9.766;2023-04-20T11:21:16;6.00;99.90
21261;DHT22;10788;47.930;9.766;2023-04-20T11:23:41;6.00;99.90
21261;DHT22;10788;47.930;9.766;2023-04-20T11:26:08;6.10;99.90
21261;DHT22;10788;47.930;9.766;2023-04-20T11:28:34;6.00;99.90
21261;DHT22;10788;47.930;9.766;2023-04-20T11:30:59;5.80;99.90
21261;DHT22;10788;47.930;9.766;2023-04-20T11:33:26;5.90;99.90
21261;DHT22;10788;47.930;9.766;2023-04-20T11:35:55;6.00;99.90
21261;DHT22;10788;47.930;9.766;2023-04-20T11:38:31;6.00;99.90
21261;DHT22;10788;47.930;9.766;2023-04-20T11:40:57;6.10;99.90
21261;DHT22;10788;47.930;9.766;2023-04-20T11:43:32;6.00;99.90
21261;DHT22;10788;47.930;9.766;2023-04-20T11:45:58;6.20;99.90
21261;DHT22;10788;47.930;9.766;2023-04-20T11:48:30;6.30;99.90
21261;DHT22;10788;47.930;9.766;2023-04-20T11:50:56;6.20;99.90
21261;DHT22;10788;47.930;9.766;2023-04-20T11:53:22;6.20;99.90
21261;DHT22;10788;47.930;9.766;2023-04-20T11:55:47;6.30;99.90
21261;DHT22;10788;47.930;9.766;2023-04-20T11:58:13;6.30;99.90
21261;DHT22;10788;47.930;9.766;2023-04-20T12:00:39;6.30;99.90
21261;DHT22;10788;47.930;9.766;2023-04-20T12:03:05;6.30;99.90
21261;DHT22;10788;47.930;9.766;2023-04-20T12:05:30;6.40;99.90
21261;DHT22;10788;47.930;9.766;2023-04-20T12:07:56;6.50;99.90
21261;DHT22;10788;47.930;9.766;2023-04-20T12:10:21;6.50;99.90
21261;DHT22;10788;47.930;9.766;2023-04-20T12:12:47;6.50;99.90
21261;DHT22;10788;47.930;9.766;2023-04-20T12:15:13;6.60;99.90
21261;DHT22;10788;47.930;9.766;2023-04-20T12:17:39;6.50;99.90
21261;DHT22;10788;47.930;9.766;2023-04-20T12:20:05;6.50;99.90
21261;DHT22;10788;47.930;9.766;2023-04-20T12:22:33;6.50;99.90
21261;DHT22;10788;47.930;9.766;2023-04-20T12:24:58;6.60;99.90
21261;DHT22;10788;47.930;9.766;2023-04-20T12:27:24;6.60;99.90
21261;DHT22;10788;47.930;9.766;2023-04-20T12:29:50;6.60;99.90
21261;DHT22;10788;47.930;9.766;2023-04-20T12:32:16;6.50;99.90
21261;DHT22;10788;47.930;9.766;2023-04-20T12:34:42;6.40;99.90
21261;DHT22;10788;47.930;9.766;2023-04-20T12:37:07;6.40;99.90
21261;DHT22;10788;47.930;9.766;2023-04-20T12:39:33;6.30;99.90
21261;DHT22;10788;47.930;9.766;2023-04-20T12:41:59;6.40;99.90
21261;DHT22;10788;47.930;9.766;2023-04-20T12:44:24;6.30;99.90
21261;DHT22;10788;47.930;9.766;2023-04-20T12:46:50;6.40;99.90
21261;DHT22;10788;47.930;9.766;2023-04-20T12:49:16;6.50;99.90
21261;DHT22;10788;47.930;9.766;2023-04-20T12:51:41;6.40;99.90
21261;DHT22;10788;47.930;9.766;2023-04-20T12:54:07;6.50;99.90
21261;DHT22;10788;47.930;9.766;2023-04-20T12:56:32;6.50;99.90
21261;DHT22;10788;47.930;9.766;2023-04-20T12:58:58;6.50;99.90
21261;DHT22;10788;47.930;9.766;2023-04-20T13:01:24;6.20;99.90
21261;DHT22;10788;47.930;9.766;2023-04-20T13:03:50;6.30;99.90
21261;DHT22;10788;47.930;9.766;2023-04-20T13:06:16;6.30;99.90
21261;DHT22;10788;47.930;9.766;2023-04-20T13:08:42;6.30;99.90
21261;DHT22;10788;47.930;9.766;2023-04-20T13:11:09;6.40;99.90
21261;DHT22;10788;47.930;9.766;2023-04-20T13:13:36;6.30;99.90
21261;DHT22;10788;47.930;9.766;2023-04-20T13:16:02;6.30;99.90
21261;DHT22;10788;47.930;9.766;2023-04-20T13:18:27;6.40;99.90
21261;DHT22;10788;47.930;9.766;2023-04-20T13:20:53;6.40;99.90
21261;DHT22;10788;47.930;9.766;2023-04-20T13:23:19;6.40;99.90
21261;DHT22;10788;47.930;9.766;2023-04-20T13:25:44;6.30;99.90
21261;DHT22;10788;47.930;9.766;2023-04-20T13:28:10;6.40;99.90
21261;DHT22;10788;47.930;9.766;2023-04-20T13:30:36;6.40;99.90
21261;DHT22;10788;47.930;9.766;2023-04-20T13:33:03;6.30;99.90
21261;DHT22;10788;47.930;9.766;2023-04-20T13:35:29;6.40;99.90
21261;DHT22;10788;47.930;9.766;2023-04-20T13:37:54;6.30;99.90
21261;DHT22;10788;47.930;9.766;2023-04-20T13:40:20;6.30;99.90
21261;DHT22;10788;47.930;9.766;2023-04-20T13:42:46;6.30;99.90
21261;DHT22;10788;47.930;9.766;2023-04-20T13:45:12;6.40;99.90
21261;DHT22;10788;47.930;9.766;2023-04-20T13:47:38;6.30;99.90
21261;DHT22;10788;47.930;9.766;2023-04-20T13:50:05;6.10;99.90
21261;DHT22;10788;47.930;9.766;2023-04-20T13:52:31;6.20;99.90
21261;DHT22;10788;47.930;9.766;2023-04-20T13:54:56;6.10;99.90
21261;DHT22;10788;47.930;9.766;2023-04-20T13:57:22;6.10;99.90
21261;DHT22;10788;47.930;9.766;2023-04-20T13:59:48;6.20;99.90
21261;DHT22;10788;47.930;9.766;2023-04-20T14:02:14;6.10;99.90
21261;DHT22;10788;47.930;9.766;2023-04-20T14:04:40;6.10;99.90
21261;DHT22;10788;47.930;9.766;2023-04-20T14:07:06;6.00;99.90
21261;DHT22;10788;47.930;9.766;2023-04-20T14:09:31;5.90;99.90
21261;DHT22;10788;47.930;9.766;2023-04-20T14:11:57;5.80;99.90
21261;DHT22;10788;47.930;9.766;2023-04-20T14:14:24;5.70;99.90
21261;DHT22;10788;47.930;9.766;2023-04-20T14:16:50;5.80;99.90
21261;DHT22;10788;47.930;9.766;2023-04-20T14:19:15;5.80;99.90
21261;DHT22;10788;47.930;9.766;2023-04-20T14:21:41;5.70;99.90
21261;DHT22;10788;47.930;9.766;2023-04-20T14:24:12;5.70;99.90
21261;DHT22;10788;47.930;9.766;2023-04-20T14:26:38;5.70;99.90
21261;DHT22;10788;47.930;9.766;2023-04-20T14:29:03;5.70;99.90
21261;DHT22;10788;47.930;9.766;2023-04-20T14:31:30;5.70;99.90
21261;DHT22;10788;47.930;9.766;2023-04-20T14:33:56;5.60;99.90
21261;DHT22;10788;47.930;9.766;2023-04-20T14:36:22;5.60;99.90
21261;DHT22;10788;47.930;9.766;2023-04-20T14:38:48;5.60;99.90
21261;DHT22;10788;47.930;9.766;2023-04-20T14:41:16;5.70;99.90
21261;DHT22;10788;47.930;9.766;2023-04-20T14:43:42;5.70;99.90
21261;DHT22;10788;47.930;9.766;2023-04-20T14:46:08;5.60;99.90
21261;DHT22;10788;47.930;9.766;2023-04-20T14:48:33;5.70;99.90
21261;DHT22;10788;47.930;9.766;2023-04-20T14:51:05;5.70;99.90
21261;DHT22;10788;47.930;9.766;2023-04-20T14:53:31;5.80;99.90
21261;DHT22;10788;47.930;9.766;2023-04-20T14:55:56;5.70;99.90
21261;DHT22;10788;47.930;9.766;2023-04-20T14:58:22;5.70;99.90
21261;DHT22;10788;47.930;9.766;2023-04-20T15:00:48;5.70;99.90
21261;DHT22;10788;47.930;9.766;2023-04-20T15:03:15;5.70;99.90
21261;DHT22;10788;47.930;9.766;2023-04-20T15:05:40;5.50;99.90
21261;DHT22;10788;47.930;9.766;2023-04-20T15:08:06;5.50;99.90
21261;DHT22;10788;47.930;9.766;2023-04-20T15:10:32;5.50;99.90
21261;DHT22;10788;47.930;9.766;2023-04-20T15:12:57;5.70;99.90
21261;DHT22;10788;47.930;9.766;2023-04-20T15:15:23;5.70;99.90
21261;DHT22;10788;47.930;9.766;2023-04-20T15:17:49;5.70;99.90
21261;DHT22;10788;47.930;9.766;2023-04-20T15:20:15;5.60;99.90
21261;DHT22;10788;47.930;9.766;2023-04-20T15:22:40;5.80;99.90
21261;DHT22;10788;47.930;9.766;2023-04-20T15:25:07;5.80;99.90
21261;DHT22;10788;47.930;9.766;2023-04-20T15:27:33;5.90;99.90
21261;DHT22;10788;47.930;9.766;2023-04-20T15:29:59;5.90;99.90
21261;DHT22;10788;47.930;9.766;2023-04-20T15:32:25;5.90;99.90
21261;DHT22;10788;47.930;9.766;2023-04-20T15:34:51;5.90;99.90
21261;DHT22;10788;47.930;9.766;2023-04-20T15:37:17;5.90;99.90
21261;DHT22;10788;47.930;9.766;2023-04-20T15:39:42;6.00;99.90
21261;DHT22;10788;47.930;9.766;2023-04-20T15:42:09;6.00;99.90